Time;durP1;ratioP1;P1;durP2;ratioP2;P2;SDS_P1;SDS_P2;PMS_P1;PMS_P2;Temp;Humidity;BMP_temperature;BMP_pressure;BME280_temperature;BME280_humidity;BME280_pressure;Samples;Min_cycle;Max_cycle;Signal;HPM_P1;HPM_P2
2022/08/11 00:09:00;;;;;;;4.68;2.20;;;;;;;19.39;47.49;100741.00;20901997;28;20049;-65
2022/08/11 00:19:01;;;;;;;4.40;2.10;;;;;;;19.18;48.39;100749.03;20900796;28;20059;-66
2022/08/11 00:29:02;;;;;;;6.18;2.55;;;;;;;18.89;49.79;100746.84;20900134;28;20082;-66
2022/08/11 00:39:04;;;;;;;5.57;2.35;;;;;;;18.65;51.38;100749.59;20898615;28;20690;-66
2022/08/11 00:49:05;;;;;;;6.25;2.20;;;;;;;18.44;51.72;100758.47;20899475;28;20482;-66
2022/08/11 00:59:07;;;;;;;4.80;2.38;;;;;;;18.46;50.93;100749.53;20897641;28;20049;-65
2022/08/11 01:09:29;;;;;;;5.55;2.45;;;;;;;18.68;49.69;100749.50;20897190;28;20045;-66
2022/08/11 01:19:30;;;;;;;5.75;2.30;;;;;;;18.73;49.73;100751.06;20895473;28;20555;-66
2022/08/11 01:29:31;;;;;;;4.28;2.28;;;;;;;18.34;51.46;100754.47;20894663;28;20052;-66
2022/08/11 01:39:33;;;;;;;4.55;2.22;;;;;;;18.48;49.68;100751.25;20882090;22;20041;-66
2022/08/11 01:49:34;;;;;;;6.93;2.10;;;;;;;18.44;49.55;100753.16;20811353;28;20103;-66
2022/08/11 01:59:55;;;;;;;4.70;2.05;;;;;;;18.45;49.48;100758.41;20810162;28;20058;-65
2022/08/11 02:09:57;;;;;;;7.85;2.80;;;;;;;18.05;52.67;100750.41;20808619;28;20049;-68
2022/08/11 02:30:19;;;;;;;6.38;3.10;;;;;;;17.29;56.56;100767.47;20808359;28;20042;-65
2022/08/11 02:40:20;;;;;;;5.72;2.60;;;;;;;17.27;55.50;100769.31;20806859;28;20257;-65
2022/08/11 02:50:22;;;;;;;5.18;2.13;;;;;;;17.23;56.02;100757.13;20807118;28;20049;-65
2022/08/11 03:00:23;;;;;;;5.20;2.20;;;;;;;16.98;58.19;100763.31;20806032;28;20041;-65
2022/08/11 03:10:24;;;;;;;8.18;2.70;;;;;;;16.83;59.55;100761.25;20806291;28;20037;-65
2022/08/11 03:20:26;;;;;;;5.05;2.70;;;;;;;16.62;60.96;100766.34;20814405;28;20081;-65
2022/08/11 03:30:38;;;;;;;5.65;2.78;;;;;;;16.57;60.70;100776.19;20821451;28;20038;-65
2022/08/11 03:51:00;;;;;;;5.75;2.65;;;;;;;16.29;63.02;100784.22;20820714;28;20486;-65
2022/08/11 04:01:01;;;;;;;5.95;2.78;;;;;;;16.30;62.36;100787.72;20818856;28;20056;-65
2022/08/11 04:11:02;;;;;;;6.32;3.00;;;;;;;16.08;62.99;100780.47;20818467;28;20049;-65
2022/08/11 04:21:04;;;;;;;8.13;3.10;;;;;;;16.28;60.95;100785.09;20818096;28;20053;-64
2022/08/11 04:31:05;;;;;;;7.00;3.17;;;;;;;16.34;61.40;100777.00;20817005;28;20488;-65
2022/08/11 04:41:13;;;;;;;8.73;3.25;;;;;;;16.43;61.26;100783.72;20816393;28;20092;-65
2022/08/11 05:01:41;;;;;;;5.03;3.10;;;;;;;16.78;60.61;100798.44;20815831;28;20509;-66
2022/08/11 05:11:43;;;;;;;5.80;2.95;;;;;;;16.95;60.18;100800.47;20812714;28;20053;-65
2022/08/11 06:03:12;;;;;;;7.03;3.00;;;;;;;18.48;55.08;100799.84;20809231;28;20049;-66
2022/08/11 06:13:13;;;;;;;9.35;3.20;;;;;;;18.75;55.30;100807.59;20810199;28;20053;-66
2022/08/11 06:23:16;;;;;;;7.97;3.15;;;;;;;19.15;54.29;100807.56;20807839;28;20060;-66
2022/08/11 06:33:18;;;;;;;7.20;2.67;;;;;;;19.49;52.41;100808.69;20804556;28;20453;-66
2022/08/11 06:43:19;;;;;;;8.40;2.70;;;;;;;19.86;51.16;100804.34;20803442;28;20049;-66
2022/08/11 06:53:20;;;;;;;5.93;2.25;;;;;;;20.27;49.70;100804.13;20803333;28;20053;-68
2022/08/11 07:03:22;;;;;;;6.82;2.65;;;;;;;20.65;47.74;100800.44;20804978;28;20075;-68
2022/08/11 07:34:06;;;;;;;7.35;2.45;;;;;;;21.68;44.48;100790.50;20803776;28;20474;-66
2022/08/11 07:44:15;;;;;;;5.22;2.70;;;;;;;21.98;43.96;100774.56;20804214;28;20061;-67
2022/08/11 07:54:17;;;;;;;5.68;2.65;;;;;;;22.51;42.97;100772.41;20803891;28;20037;-67
2022/08/11 08:25:02;;;;;;;8.38;2.70;;;;;;;23.71;39.63;100766.78;20816927;28;20046;-68
2022/08/11 08:35:04;;;;;;;6.90;2.58;;;;;;;24.08;38.78;100766.19;20816914;28;20049;-70
2022/08/11 08:45:06;;;;;;;13.50;2.97;;;;;;;24.49;36.42;100766.16;20816564;28;20505;-68
2022/08/11 08:55:07;;;;;;;9.15;2.45;;;;;;;24.79;37.51;100764.03;20816942;28;20512;-69
2022/08/11 09:05:08;;;;;;;15.70;2.80;;;;;;;25.15;36.97;100767.78;20816111;28;20053;-68
2022/08/11 09:15:10;;;;;;;6.50;2.85;;;;;;;25.36;35.36;100764.56;20814638;28;20049;-68
2022/08/11 09:35:32;;;;;;;8.98;2.80;;;;;;;26.32;32.56;100761.00;20813894;28;20046;-68
2022/08/11 09:45:33;;;;;;;8.88;2.60;;;;;;;26.60;32.50;100764.31;20813231;28;20064;-70
2022/08/11 09:55:40;;;;;;;4.70;2.40;;;;;;;26.93;33.16;100754.59;20811027;28;20057;-68
2022/08/11 10:16:08;;;;;;;5.35;2.53;;;;;;;27.28;33.36;100735.69;20808945;28;20054;-70
2022/08/11 10:36:41;;;;;;;6.00;2.20;;;;;;;27.63;29.82;100703.22;20808278;28;20524;-68
2022/08/11 11:07:23;;;;;;;4.40;1.88;;;;;;;28.40;25.72;100667.22;20806093;28;20061;-65
2022/08/11 11:27:26;;;;;;;4.57;1.80;;;;;;;28.50;26.28;100650.09;20803394;28;20710;-66
2022/08/11 11:37:27;;;;;;;7.53;2.45;;;;;;;28.43;24.16;100635.47;20801905;28;20518;-67
2022/08/11 11:47:29;;;;;;;6.90;1.70;;;;;;;28.75;24.00;100613.81;20820113;28;20045;-67
2022/08/11 12:08:18;;;;;;;7.38;2.00;;;;;;;28.70;23.83;100599.88;20817893;28;20049;-67
2022/08/11 12:18:24;;;;;;;3.28;1.70;;;;;;;28.99;24.11;100588.38;20818488;28;20049;-66
2022/08/11 12:28:26;;;;;;;5.25;1.85;;;;;;;28.87;22.31;100585.75;20817033;28;20037;-67
2022/08/11 12:38:29;;;;;;;5.75;1.75;;;;;;;28.83;23.27;100565.44;20816684;28;20049;-67
2022/08/11 13:09:22;;;;;;;5.50;1.42;;;;;;;29.10;21.50;100535.16;20813291;28;20046;-67
2022/08/11 13:19:24;;;;;;;7.03;2.10;;;;;;;29.39;21.84;100527.09;20813988;28;20046;-67
2022/08/11 13:29:25;;;;;;;6.47;1.85;;;;;;;29.17;21.10;100516.56;20813134;28;20041;-66
2022/08/11 13:39:27;;;;;;;3.80;1.80;;;;;;;29.48;21.87;100498.41;20809896;28;20060;-69
2022/08/11 13:49:28;;;;;;;3.67;1.73;;;;;;;29.56;21.15;100501.28;20811385;28;20547;-68
2022/08/11 13:59:29;;;;;;;6.47;1.80;;;;;;;29.64;21.88;100485.19;20809039;28;20046;-68
2022/08/11 14:09:31;;;;;;;6.30;2.22;;;;;;;29.94;21.26;100471.63;20808958;28;20458;-68
2022/08/11 14:19:33;;;;;;;6.38;1.50;;;;;;;29.52;22.06;100459.34;20808429;28;20038;-68
2022/08/11 14:29:37;;;;;;;4.70;1.90;;;;;;;29.81;21.53;100453.06;20804001;28;20056;-68
2022/08/11 14:39:49;;;;;;;6.10;2.00;;;;;;;29.82;21.66;100436.72;20805241;28;20052;-67
2022/08/11 14:49:53;;;;;;;5.70;1.80;;;;;;;29.98;21.54;100429.84;20806299;28;20490;-69
2022/08/11 15:00:11;;;;;;;4.25;1.52;;;;;;;29.86;21.15;100421.94;20803695;28;20053;-68
2022/08/11 15:10:13;;;;;;;5.07;1.63;;;;;;;29.66;21.78;100417.59;20804700;28;20056;-68
2022/08/11 15:51:15;;;;;;;6.25;2.50;;;;;;;30.32;20.37;100381.50;20817537;28;20068;-69
2022/08/11 16:11:37;;;;;;;7.28;2.00;;;;;;;30.13;20.96;100371.66;20814809;28;20046;-71
2022/08/11 16:21:41;;;;;;;5.90;2.00;;;;;;;30.25;21.41;100369.63;20814243;28;20497;-71
2022/08/11 16:32:15;;;;;;;8.35;2.35;;;;;;;30.04;20.39;100369.81;20811597;28;20045;-71
2022/08/11 16:52:44;;;;;;;4.85;1.70;;;;;;;30.19;21.59;100354.03;20813252;28;20111;-70
2022/08/11 17:13:09;;;;;;;7.18;1.95;;;;;;;29.67;21.73;100346.44;20811111;28;20054;-69
2022/08/11 17:23:56;;;;;;;3.92;1.80;;;;;;;29.43;22.19;100340.69;20809556;28;20053;-69
2022/08/11 18:04:31;;;;;;;9.40;2.13;;;;;;;28.26;23.63;100346.06;20806348;28;20056;-69
